SHT5W EGAC-EGLL
Flight info
| Callsign | SHT5W |
|---|---|
| Flight time | N/A |
| Altitude | 25000 |
| Route | DCT DUFFY L10 RINGA Q39 ETIGA/N0442F370 DCT INKOB Q39 NOMSU UQ4 WAL UY53 NUGRA NUGRA2H |
| Aircraft | A319/M-SDE3FGIJ1KRWXY/LB1 |
Departure
| Time | N/A |
|---|---|
| Airport | George Best Belfast City Airport (EGAC) |
Arrival
| Time | 2026-05-05 10:34 |
|---|---|
| Airport | London Heathrow Airport (EGLL) |
| Time | Latitude | Longitude | Altitude | Speed | Heading |
|---|---|---|---|---|---|
| 2026-05-05 10:24 | 51.71650 | -0.56885 | 7331 ft | 253 kts | 170° |
| 2026-05-05 10:24 | 51.69791 | -0.56759 | 7031 ft | 273 kts | 180° |
| 2026-05-05 10:24 | 51.67872 | -0.56823 | 6985 ft | 278 kts | 181° |
| 2026-05-05 10:25 | 51.65950 | -0.56910 | 6996 ft | 271 kts | 181° |
| 2026-05-05 10:25 | 51.64728 | -0.56972 | 6995 ft | 261 kts | 181° |
| 2026-05-05 10:25 | 51.62927 | -0.57067 | 6998 ft | 250 kts | 181° |
| 2026-05-05 10:25 | 51.61212 | -0.57163 | 6806 ft | 245 kts | 181° |
| 2026-05-05 10:26 | 51.59512 | -0.57336 | 6530 ft | 245 kts | 189° |
| 2026-05-05 10:26 | 51.58003 | -0.58528 | 6235 ft | 245 kts | 222° |
| 2026-05-05 10:26 | 51.57056 | -0.60813 | 5891 ft | 245 kts | 248° |
| 2026-05-05 10:26 | 51.56435 | -0.63374 | 5541 ft | 246 kts | 251° |
| 2026-05-05 10:27 | 51.55841 | -0.65972 | 5195 ft | 245 kts | 251° |
| 2026-05-05 10:27 | 51.55261 | -0.68515 | 4814 ft | 245 kts | 251° |
| 2026-05-05 10:27 | 51.54674 | -0.71073 | 4407 ft | 244 kts | 251° |
| 2026-05-05 10:27 | 51.54075 | -0.73647 | 4051 ft | 242 kts | 251° |
| 2026-05-05 10:28 | 51.53479 | -0.76174 | 3745 ft | 239 kts | 251° |
| 2026-05-05 10:28 | 51.52827 | -0.78873 | 3597 ft | 227 kts | 249° |
| 2026-05-05 10:28 | 51.51996 | -0.80697 | 3382 ft | 223 kts | 219° |
| 2026-05-05 10:28 | 51.50584 | -0.81604 | 3052 ft | 219 kts | 182° |
| 2026-05-05 10:29 | 51.49165 | -0.81154 | 2994 ft | 203 kts | 149° |
| 2026-05-05 10:29 | 51.48130 | -0.79748 | 3024 ft | 192 kts | 122° |
| 2026-05-05 10:29 | 51.47633 | -0.77832 | 3003 ft | 184 kts | 95° |
| 2026-05-05 10:29 | 51.47603 | -0.75814 | 3007 ft | 180 kts | 86° |
| 2026-05-05 10:30 | 51.47617 | -0.73810 | 3006 ft | 180 kts | 85° |
| 2026-05-05 10:30 | 51.47630 | -0.71799 | 2937 ft | 181 kts | 86° |
| 2026-05-05 10:30 | 51.47642 | -0.69782 | 2744 ft | 180 kts | 86° |
| 2026-05-05 10:30 | 51.47653 | -0.67768 | 2513 ft | 180 kts | 86° |
| 2026-05-05 10:31 | 51.47665 | -0.65755 | 2278 ft | 181 kts | 85° |
| 2026-05-05 10:31 | 51.47676 | -0.63733 | 2029 ft | 180 kts | 86° |
| 2026-05-05 10:31 | 51.47686 | -0.61745 | 1786 ft | 170 kts | 85° |
| 2026-05-05 10:31 | 51.47695 | -0.59893 | 1549 ft | 162 kts | 86° |
| 2026-05-05 10:32 | 51.47703 | -0.58114 | 1346 ft | 157 kts | 85° |
| 2026-05-05 10:32 | 51.47710 | -0.56450 | 1139 ft | 141 kts | 85° |
| 2026-05-05 10:32 | 51.47718 | -0.54939 | 935 ft | 131 kts | 86° |
| 2026-05-05 10:32 | 51.47719 | -0.53488 | 791 ft | 129 kts | 86° |
| 2026-05-05 10:33 | 51.47734 | -0.52063 | 551 ft | 126 kts | 86° |
| 2026-05-05 10:33 | 51.47745 | -0.50621 | 382 ft | 127 kts | 86° |
| 2026-05-05 10:33 | 51.47750 | -0.49200 | 198 ft | 127 kts | 86° |
| 2026-05-05 10:33 | 51.47751 | -0.47789 | 88 ft | 115 kts | 89° |
| 2026-05-05 10:34 | 51.47760 | -0.46844 | 89 ft | 42 kts | 91° |
| 2026-05-05 10:34 | 51.47759 | -0.46488 | 89 ft | 35 kts | 89° |
| 2026-05-05 10:34 | 51.47721 | -0.46169 | 89 ft | 27 kts | 140° |
| 2026-05-05 10:34 | 51.47598 | -0.46090 | 87 ft | 15 kts | 226° |
| 2026-05-05 10:35 | 51.47591 | -0.46249 | 87 ft | 16 kts | 274° |
| 2026-05-05 10:35 | 51.47590 | -0.46446 | 87 ft | 19 kts | 270° |
| 2026-05-05 10:35 | 51.47590 | -0.46680 | 87 ft | 23 kts | 269° |
| 2026-05-05 10:35 | 51.47582 | -0.46942 | 87 ft | 25 kts | 269° |
| 2026-05-05 10:36 | 51.47581 | -0.47237 | 87 ft | 28 kts | 270° |
| 2026-05-05 10:36 | 51.47580 | -0.47548 | 88 ft | 29 kts | 270° |
| 2026-05-05 10:36 | 51.47578 | -0.47858 | 87 ft | 25 kts | 269° |
| 2026-05-05 10:36 | 51.47575 | -0.48098 | 87 ft | 21 kts | 271° |
| 2026-05-05 10:37 | 51.47576 | -0.48331 | 87 ft | 21 kts | 270° |
| 2026-05-05 10:37 | 51.47522 | -0.48477 | 87 ft | 16 kts | 182° |
| 2026-05-05 10:37 | 51.47486 | -0.48613 | 87 ft | 15 kts | 270° |
| 2026-05-05 10:37 | 51.47486 | -0.48778 | 87 ft | 14 kts | 269° |
| 2026-05-05 10:38 | 51.47480 | -0.48889 | 89 ft | 5 kts | 228° |
| 2026-05-05 10:38 | 51.47441 | -0.48894 | 87 ft | 6 kts | 180° |
| 2026-05-05 10:38 | 51.47407 | -0.48893 | 87 ft | 0 kts | 179° |